LETO/TOJ METAR and TAF weather

Enter ICAO airport designator
Station Type Date Time Source
LETO METAR 2020/04/05 18:00 UTC NOAA

LETO 051800Z 24003KT 210V280 9999 FEW068 18/09 Q1015 NOSIG


Station Type Date Time Source
LETO Decoded METAR 2020/04/05 18:00 UTC NOAA

Madrid / Torrejon, Spain (LETO) 40-29N 003-27W 611M
Apr 05, 2020 - 02:00 PM EDT / 2020.04.05 1800 UTC
Wind: from the WSW (240 degrees) at 3 MPH (3 KT) (direction variable):0
Visibility: greater than 7 mile(s):0
Sky conditions: mostly clear
Temperature: 64 F (18 C)
Dew Point: 48 F (9 C)
Relative Humidity: 55%
Pressure (altimeter): 29.97 in. Hg (1015 hPa)
ob: LETO 051800Z 24003KT 210V280 9999 FEW068 18/09 Q1015 NOSIG
cycle: 18

Station Type Date Time Source
LETO TAF 2020/04/05 18:27 UTC NOAA

TAF LETO 051700Z 0518/0618 21010KT 9999 SCT030 SCT045 TX20/0615Z TN12/0606Z PROB40
TEMPO 0518/0521 FEW030TCU PROB30
TEMPO 0519/0521 4000 SHRA FEW030TCU PROB40
TEMPO 0519/0609 4000 RA SCT014 BKN035 PROB40
TEMPO 0602/0611 3000 BR BKN010 PROB30
TEMPO 0609/0618 4000 RA SCT020 BKN045

Example: see airport list